Time;durP1;ratioP1;P1;durP2;ratioP2;P2;SDS_P1;SDS_P2;PMS_P1;PMS_P2;Temp;Humidity;BMP_temperature;BMP_pressure;BME280_temperature;BME280_humidity;BME280_pressure;Samples;Min_cycle;Max_cycle;Signal;HPM_P1;HPM_P2
2022/07/15 00:00:06;;;;;;;6.95;1.95;;;;;;;28.99;32.05;98235.59;4486087;32;20119;-80
2022/07/15 00:02:31;;;;;;;7.35;1.83;;;;;;;28.87;32.34;98277.97;4473046;32;20148;-80
2022/07/15 00:04:57;;;;;;;5.45;1.95;;;;;;;28.63;33.05;98290.38;4486971;32;20230;-80
2022/07/15 00:07:22;;;;;;;5.45;1.67;;;;;;;28.84;32.84;98283.84;4472657;32;20126;-80
2022/07/15 00:12:32;;;;;;;6.95;2.00;;;;;;;28.91;33.10;98272.97;4486787;32;20148;-80
2022/07/15 00:14:58;;;;;;;4.62;2.00;;;;;;;28.87;33.21;98271.72;4486567;32;20100;-80
2022/07/15 00:17:23;;;;;;;6.35;1.92;;;;;;;28.83;33.31;98266.72;4487104;32;20128;-80
2022/07/15 00:19:49;;;;;;;5.47;1.75;;;;;;;28.62;33.91;98254.28;4472317;32;20084;-80
2022/07/15 00:22:14;;;;;;;6.72;2.12;;;;;;;28.54;34.19;98265.34;4472127;32;20080;-80
2022/07/15 00:24:40;;;;;;;8.63;2.12;;;;;;;28.58;34.29;98246.78;4486545;32;20080;-80
2022/07/15 00:27:05;;;;;;;5.85;2.00;;;;;;;28.55;34.48;98247.22;4486646;32;20496;-80
2022/07/15 00:29:31;;;;;;;5.93;2.17;;;;;;;28.59;34.47;98238.47;4472191;32;20107;-80
2022/07/15 00:31:57;;;;;;;5.60;1.85;;;;;;;28.60;34.48;98240.09;4472309;32;20080;-80
2022/07/15 00:34:22;;;;;;;5.82;1.92;;;;;;;28.59;34.56;98230.34;4472099;32;20448;-80
2022/07/15 00:36:48;;;;;;;6.40;2.30;;;;;;;28.28;35.20;98220.19;4486461;32;20072;-80
2022/07/15 00:39:14;;;;;;;7.75;2.28;;;;;;;28.23;35.41;98212.66;4472242;32;20111;-80
2022/07/15 00:41:40;;;;;;;6.97;2.00;;;;;;;28.33;35.24;98195.16;4486218;32;20148;-80
2022/07/15 00:44:06;;;;;;;7.32;2.22;;;;;;;28.37;35.29;98218.88;4472112;32;20112;-80
2022/07/15 00:46:31;;;;;;;6.15;2.15;;;;;;;28.32;35.46;98221.41;4472279;32;20136;-80
2022/07/15 00:48:58;;;;;;;6.43;2.17;;;;;;;28.18;35.71;98217.91;4486249;32;20106;-80
2022/07/15 00:51:23;;;;;;;6.20;2.30;;;;;;;28.37;35.37;98216.16;4472009;32;20137;-80
2022/07/15 00:53:50;;;;;;;7.78;2.17;;;;;;;28.46;35.24;98208.66;4486167;32;20398;-80
2022/07/15 00:56:16;;;;;;;6.57;1.98;;;;;;;28.47;35.25;98202.19;4458922;32;20092;-80
2022/07/15 00:58:42;;;;;;;5.80;1.95;;;;;;;28.67;35.06;98201.34;4471874;32;20416;-80
2022/07/15 01:01:08;;;;;;;7.37;2.22;;;;;;;28.57;35.16;98207.22;4486059;32;20076;-80
2022/07/15 01:03:34;;;;;;;6.45;2.37;;;;;;;28.34;35.73;98215.78;4485981;32;20167;-80
2022/07/15 01:05:59;;;;;;;6.32;2.25;;;;;;;28.56;35.36;98227.22;4486003;32;20085;-80
2022/07/15 01:08:25;;;;;;;8.63;2.03;;;;;;;28.55;35.47;98242.66;4486089;32;20115;-80
2022/07/15 01:10:51;;;;;;;9.38;2.20;;;;;;;28.27;36.05;98259.12;4487247;32;20106;-80
2022/07/15 01:13:18;;;;;;;8.82;2.47;;;;;;;28.39;35.99;98260.12;4488020;32;20144;-80
2022/07/15 01:15:43;;;;;;;8.00;2.62;;;;;;;28.19;36.77;98256.66;4487945;32;20092;-80
2022/07/15 01:18:10;;;;;;;5.68;2.37;;;;;;;28.13;37.06;98269.16;4487902;32;20102;-81
2022/07/15 01:20:43;;;;;;;9.00;2.80;;;;;;;28.19;37.13;98278.31;4488080;32;20104;-80
2022/07/15 01:23:09;;;;;;;7.32;2.90;;;;;;;28.06;37.55;98278.31;4473628;32;20464;-80
2022/07/15 01:25:34;;;;;;;7.53;2.75;;;;;;;27.76;38.29;98286.81;4488185;32;20114;-80
2022/07/15 01:28:00;;;;;;;5.85;2.40;;;;;;;27.55;38.82;98294.06;4474027;32;20519;-80
2022/07/15 01:30:26;;;;;;;9.13;2.65;;;;;;;27.31;39.41;98305.44;4488127;32;20077;-80
2022/07/15 01:32:53;;;;;;;9.57;2.50;;;;;;;27.16;39.74;98292.03;4488148;32;20126;-80
2022/07/15 01:35:19;;;;;;;8.68;2.67;;;;;;;27.37;39.27;98282.97;4474029;32;20176;-80
2022/07/15 01:37:46;;;;;;;9.07;2.42;;;;;;;27.45;39.12;98286.34;4487804;32;20092;-80
2022/07/15 01:40:11;;;;;;;7.43;2.72;;;;;;;27.46;39.04;98284.47;4487906;32;20151;-80
2022/07/15 01:42:38;;;;;;;8.98;2.75;;;;;;;27.43;39.12;98288.41;4473406;32;20108;-80
2022/07/15 01:45:08;;;;;;;9.50;2.62;;;;;;;27.40;39.16;98290.69;4487897;32;20131;-80
2022/07/15 01:47:44;;;;;;;6.87;2.60;;;;;;;26.85;40.46;98298.78;4473889;32;20083;-80
2022/07/15 01:50:11;;;;;;;7.47;2.20;;;;;;;27.13;39.92;98305.97;4448082;32;20092;-80
2022/07/15 01:52:36;;;;;;;7.77;2.00;;;;;;;27.16;39.83;98306.41;4487700;32;20530;-80
2022/07/15 01:55:24;;;;;;;8.52;2.50;;;;;;;27.25;39.63;98293.56;4487534;32;20120;-80
2022/07/15 01:57:50;;;;;;;7.03;2.58;;;;;;;27.27;39.60;98296.88;4487735;32;20084;-80
2022/07/15 02:00:17;;;;;;;8.13;2.30;;;;;;;27.06;39.93;98285.16;4487760;32;20114;-79
2022/07/15 02:02:43;;;;;;;8.32;2.50;;;;;;;27.05;39.86;98280.78;4473724;32;20101;-80
2022/07/15 02:05:09;;;;;;;6.82;2.20;;;;;;;27.13;39.53;98287.03;4473300;32;20523;-79
2022/07/15 02:07:34;;;;;;;6.57;2.03;;;;;;;26.58;40.39;98312.12;4487714;32;20084;-80
2022/07/15 02:10:00;;;;;;;5.47;2.25;;;;;;;26.38;40.50;98311.97;4487601;32;20072;-80
2022/07/15 02:12:25;;;;;;;7.75;2.20;;;;;;;26.55;39.86;98303.56;4487567;32;20126;-80
2022/07/15 02:14:50;;;;;;;5.82;1.85;;;;;;;26.44;39.72;98289.59;4487433;32;20092;-80
2022/07/15 02:17:16;;;;;;;5.28;1.70;;;;;;;26.69;39.25;98286.41;4487617;32;20076;-80
2022/07/15 02:19:41;;;;;;;5.28;1.87;;;;;;;26.65;39.11;98290.56;4487490;32;20080;-80
2022/07/15 02:22:07;;;;;;;4.50;2.03;;;;;;;26.61;39.18;98294.69;4486806;32;20087;-80
2022/07/15 02:24:32;;;;;;;6.20;2.00;;;;;;;26.54;38.84;98291.94;4487526;32;20084;-80
2022/07/15 02:26:57;;;;;;;5.40;1.90;;;;;;;26.54;38.66;98304.59;4487507;32;20106;-80
2022/07/15 02:29:23;;;;;;;5.47;1.80;;;;;;;26.77;38.12;98316.00;4487443;32;20136;-80
2022/07/15 02:31:49;;;;;;;6.10;1.87;;;;;;;27.01;37.56;98332.75;4487439;32;20152;-80
2022/07/15 02:34:14;;;;;;;6.60;1.77;;;;;;;27.07;37.14;98350.88;4487578;32;20080;-80
2022/07/15 02:36:39;;;;;;;5.85;1.80;;;;;;;27.00;37.30;98360.81;4487422;32;20115;-80
2022/07/15 02:39:05;;;;;;;3.83;1.50;;;;;;;27.02;36.72;98381.22;4487514;32;20080;-80
2022/07/15 02:41:30;;;;;;;3.42;1.50;;;;;;;26.74;36.67;98385.81;4487370;32;20084;-81
2022/07/15 02:43:56;;;;;;;3.95;1.30;;;;;;;26.96;35.84;98387.41;4487330;32;20139;-80
2022/07/15 02:46:21;;;;;;;3.55;1.30;;;;;;;26.94;35.38;98389.47;4487307;32;20133;-80
2022/07/15 02:48:47;;;;;;;4.35;1.50;;;;;;;27.05;34.98;98378.09;4473185;32;20096;-80
2022/07/15 02:51:13;;;;;;;6.32;1.25;;;;;;;26.90;34.95;98376.56;4487546;32;20112;-80
2022/07/15 02:53:39;;;;;;;3.53;1.20;;;;;;;26.91;34.65;98394.44;4487363;32;20089;-80
2022/07/15 02:56:05;;;;;;;3.67;1.40;;;;;;;26.99;34.01;98378.91;4487247;32;20084;-80
2022/07/15 02:58:31;;;;;;;2.70;1.20;;;;;;;27.03;33.88;98384.75;4487398;32;20084;-80
2022/07/15 03:00:58;;;;;;;4.35;1.30;;;;;;;26.91;33.27;98381.78;4487409;32;20096;-80
2022/07/15 03:03:25;;;;;;;2.40;1.10;;;;;;;26.82;33.45;98383.78;4487257;32;20183;-80
2022/07/15 03:05:50;;;;;;;2.70;1.08;;;;;;;26.88;33.05;98369.47;4472969;32;20139;-80
2022/07/15 03:08:16;;;;;;;2.12;1.00;;;;;;;26.99;32.77;98373.50;4487288;32;20076;-81
2022/07/15 03:10:42;;;;;;;3.67;1.20;;;;;;;26.63;33.29;98369.09;4487158;32;20425;-80
2022/07/15 03:13:08;;;;;;;2.15;1.10;;;;;;;27.09;32.49;98383.13;4487166;32;20114;-81
2022/07/15 03:15:33;;;;;;;2.60;1.10;;;;;;;26.88;32.92;98361.34;4486991;32;20096;-80
2022/07/15 03:17:59;;;;;;;3.22;1.00;;;;;;;26.91;32.93;98356.59;4487269;32;20413;-80
2022/07/15 03:20:24;;;;;;;2.67;1.02;;;;;;;26.85;33.09;98359.06;4487107;32;20092;-80
2022/07/15 03:22:49;;;;;;;2.75;1.08;;;;;;;26.80;33.22;98369.63;4487126;32;20084;-80
2022/07/15 03:25:15;;;;;;;2.67;1.20;;;;;;;26.78;33.38;98374.41;4487101;32;20169;-80
2022/07/15 03:27:42;;;;;;;2.55;0.93;;;;;;;26.77;33.51;98375.44;4487129;32;20450;-80
2022/07/15 03:30:08;;;;;;;5.15;1.40;;;;;;;26.88;33.29;98376.75;4487126;32;20115;-80
2022/07/15 03:32:34;;;;;;;3.78;1.30;;;;;;;26.79;33.71;98381.50;4486885;32;20096;-80
2022/07/15 03:34:59;;;;;;;3.75;1.37;;;;;;;26.58;34.24;98378.78;4487348;32;20096;-80
2022/07/15 03:37:25;;;;;;;3.87;1.10;;;;;;;26.81;33.99;98379.44;4487358;32;20085;-80
2022/07/15 03:39:50;;;;;;;2.85;1.10;;;;;;;26.62;34.48;98372.84;4472969;32;20101;-80
2022/07/15 03:42:16;;;;;;;4.03;1.30;;;;;;;26.66;34.52;98357.09;4487091;32;20148;-80
2022/07/15 03:44:41;;;;;;;4.20;1.17;;;;;;;26.70;34.62;98366.47;4487006;32;20149;-80
2022/07/15 03:47:07;;;;;;;2.87;1.30;;;;;;;26.54;35.04;98370.28;4486909;32;20149;-80
2022/07/15 03:49:32;;;;;;;3.42;1.20;;;;;;;26.61;35.11;98365.75;4486976;32;20119;-80
2022/07/15 03:51:58;;;;;;;2.60;1.10;;;;;;;26.67;35.12;98370.37;4486863;32;20110;-80
2022/07/15 03:54:24;;;;;;;3.62;1.10;;;;;;;26.15;36.27;98366.19;4486947;32;20136;-80
2022/07/15 03:56:49;;;;;;;3.90;1.30;;;;;;;26.07;36.58;98367.16;4486935;32;20432;-80
2022/07/15 03:59:16;;;;;;;4.40;1.25;;;;;;;26.00;36.97;98378.91;4486819;32;20394;-80
2022/07/15 04:01:41;;;;;;;3.33;1.40;;;;;;;26.06;37.12;98392.50;4486965;32;20092;-80
2022/07/15 04:04:07;;;;;;;4.22;1.33;;;;;;;25.74;37.98;98409.16;4486830;32;20459;-80
2022/07/15 04:06:32;;;;;;;3.35;1.30;;;;;;;25.54;38.52;98414.31;4486961;32;20083;-80
2022/07/15 04:08:58;;;;;;;2.95;1.33;;;;;;;25.69;38.28;98407.84;4472409;32;20134;-80
2022/07/15 04:11:23;;;;;;;2.75;1.10;;;;;;;25.60;38.65;98391.97;4486672;32;20196;-81
2022/07/15 04:13:49;;;;;;;3.70;1.30;;;;;;;25.67;38.66;98390.16;4486805;32;20360;-80
2022/07/15 04:16:14;;;;;;;5.05;1.55;;;;;;;25.67;38.80;98390.16;4486461;32;20443;-80
2022/07/15 04:18:40;;;;;;;3.92;1.33;;;;;;;25.58;39.13;98392.16;4486543;32;20297;-80
2022/07/15 04:21:06;;;;;;;4.05;1.40;;;;;;;25.76;38.79;98393.59;4486666;32;20153;-80
2022/07/15 04:23:31;;;;;;;7.57;1.65;;;;;;;25.75;38.96;98387.38;4486572;32;20189;-81
2022/07/15 04:25:57;;;;;;;3.15;1.17;;;;;;;25.79;38.82;98382.44;4472290;32;20106;-80
2022/07/15 04:28:24;;;;;;;3.80;1.42;;;;;;;25.62;39.30;98393.44;4486559;32;20103;-80
2022/07/15 04:30:51;;;;;;;4.55;1.33;;;;;;;25.45;39.81;98402.78;4472346;32;20142;-81
2022/07/15 04:33:17;;;;;;;5.15;1.70;;;;;;;25.50;39.83;98398.50;4486783;32;20089;-80
2022/07/15 04:35:43;;;;;;;3.58;1.50;;;;;;;25.29;40.47;98410.06;4472451;32;20526;-80
2022/07/15 04:38:10;;;;;;;3.37;1.50;;;;;;;25.24;40.70;98400.84;4486750;32;20115;-80
2022/07/15 04:40:36;;;;;;;3.90;1.33;;;;;;;25.00;41.29;98405.50;4486703;32;20088;-80
2022/07/15 04:43:01;;;;;;;4.15;1.20;;;;;;;25.12;40.97;98413.94;4486494;32;20145;-81
2022/07/15 04:45:27;;;;;;;4.87;1.40;;;;;;;25.14;40.97;98422.69;4487189;32;20084;-80
2022/07/15 04:47:53;;;;;;;4.53;1.58;;;;;;;25.26;40.69;98410.41;4474033;32;20459;-80
2022/07/15 04:53:03;;;;;;;4.03;1.50;;;;;;;25.09;42.50;98439.41;4488227;32;20171;-80
2022/07/15 04:55:28;;;;;;;5.05;1.73;;;;;;;24.81;44.80;98430.28;4488214;32;20081;-80
2022/07/15 04:57:54;;;;;;;4.97;1.75;;;;;;;24.30;46.33;98450.56;4488110;32;20101;-80
2022/07/15 05:00:19;;;;;;;5.50;1.80;;;;;;;24.34;46.29;98459.94;4488184;32;20101;-80
2022/07/15 05:02:45;;;;;;;4.82;1.70;;;;;;;23.81;47.29;98444.66;4488102;32;20150;-80
2022/07/15 05:05:10;;;;;;;5.35;1.65;;;;;;;24.04;47.01;98445.50;4488082;32;20145;-80
2022/07/15 05:07:37;;;;;;;6.10;1.90;;;;;;;24.19;46.53;98440.19;4473647;32;20100;-80
2022/07/15 05:10:04;;;;;;;5.93;1.75;;;;;;;24.10;46.29;98439.41;4473790;32;20130;-80
2022/07/15 05:12:29;;;;;;;5.10;1.90;;;;;;;24.06;46.57;98439.97;4487976;32;20184;-80
2022/07/15 05:14:56;;;;;;;6.20;1.90;;;;;;;24.26;46.32;98441.16;4473433;32;20088;-80
2022/07/15 05:17:22;;;;;;;5.17;1.97;;;;;;;23.94;47.19;98445.75;4488157;32;20088;-80
2022/07/15 05:19:47;;;;;;;7.68;1.98;;;;;;;23.67;48.15;98449.72;4473652;32;20155;-80
2022/07/15 05:22:16;;;;;;;6.47;1.98;;;;;;;23.78;48.28;98439.59;4488086;32;20088;-80
2022/07/15 05:24:41;;;;;;;6.72;2.10;;;;;;;23.93;48.04;98444.09;4488038;32;20152;-80
2022/07/15 05:27:07;;;;;;;4.12;1.80;;;;;;;23.71;48.56;98451.06;4488046;32;20227;-81
2022/07/15 05:29:32;;;;;;;7.20;1.67;;;;;;;23.88;48.17;98446.47;4488001;32;20110;-80
2022/07/15 05:31:58;;;;;;;6.50;2.20;;;;;;;23.61;49.09;98453.13;4487782;32;20092;-80
2022/07/15 05:34:23;;;;;;;7.20;1.90;;;;;;;23.81;48.60;98458.09;4473520;32;20072;-80
2022/07/15 05:36:48;;;;;;;5.32;1.83;;;;;;;23.23;50.24;98458.31;4487904;32;20111;-80
2022/07/15 05:39:15;;;;;;;5.43;2.25;;;;;;;23.10;50.73;98466.06;4487902;32;20133;-80
2022/07/15 05:41:40;;;;;;;7.25;2.03;;;;;;;23.13;50.58;98479.16;4487889;32;20084;-80
2022/07/15 05:44:07;;;;;;;7.15;2.12;;;;;;;23.05;51.08;98474.66;4487759;32;20119;-80
2022/07/15 05:46:38;;;;;;;5.10;2.00;;;;;;;23.37;50.32;98480.94;4473777;32;20451;-80
2022/07/15 05:49:05;;;;;;;6.53;1.98;;;;;;;22.90;51.85;98482.53;4474385;32;20428;-80
2022/07/15 05:51:30;;;;;;;7.77;2.13;;;;;;;22.82;52.18;98481.72;4473309;32;20106;-80
2022/07/15 05:53:57;;;;;;;5.78;2.15;;;;;;;22.91;52.14;98489.59;4487813;32;20156;-80
2022/07/15 05:56:22;;;;;;;7.05;2.17;;;;;;;22.97;52.07;98494.28;4486813;32;20146;-80
2022/07/15 05:58:48;;;;;;;6.97;2.20;;;;;;;22.96;52.22;98502.50;4473492;32;20104;-79
2022/07/15 06:01:14;;;;;;;6.75;2.10;;;;;;;22.72;53.06;98506.06;4487812;32;20103;-80
2022/07/15 06:03:39;;;;;;;8.48;2.50;;;;;;;22.51;53.57;98536.09;4487645;32;20111;-80
2022/07/15 06:06:06;;;;;;;5.05;2.20;;;;;;;22.50;53.81;98542.44;4487707;32;20136;-80
2022/07/15 06:08:32;;;;;;;7.60;2.42;;;;;;;22.68;53.33;98539.63;4487629;32;20450;-80
2022/07/15 06:10:57;;;;;;;6.93;2.25;;;;;;;22.57;53.67;98546.16;4487730;32;20100;-80
2022/07/15 06:13:23;;;;;;;7.43;2.50;;;;;;;22.92;52.95;98555.72;4487578;32;20328;-80
2022/07/15 06:15:48;;;;;;;8.45;2.67;;;;;;;23.21;52.01;98548.19;4487325;32;20119;-80
2022/07/15 06:18:14;;;;;;;8.30;2.92;;;;;;;23.13;52.26;98540.97;4487698;32;20144;-80
2022/07/15 06:20:39;;;;;;;7.47;2.90;;;;;;;23.04;52.57;98534.75;4487413;32;20333;-80
2022/07/15 06:23:04;;;;;;;6.32;2.30;;;;;;;23.06;52.64;98531.91;4487539;32;20110;-80
2022/07/15 06:25:31;;;;;;;6.28;2.20;;;;;;;22.77;53.61;98536.78;4473505;32;20470;-80
2022/07/15 06:28:01;;;;;;;7.70;2.43;;;;;;;22.27;55.32;98542.22;4473685;32;20116;-79
2022/07/15 06:30:31;;;;;;;8.13;3.08;;;;;;;22.58;54.62;98537.09;4487770;32;20088;-80
2022/07/15 06:32:58;;;;;;;8.95;3.05;;;;;;;22.63;54.54;98550.00;4472559;32;20474;-80
2022/07/15 06:35:24;;;;;;;9.50;2.97;;;;;;;22.51;55.01;98547.66;4487332;32;20093;-80
2022/07/15 06:37:51;;;;;;;5.80;2.45;;;;;;;22.62;54.77;98535.75;4487486;32;20122;-80
2022/07/15 06:40:17;;;;;;;8.57;2.70;;;;;;;22.96;53.86;98546.31;4460458;32;20123;-80
2022/07/15 06:42:43;;;;;;;13.07;5.00;;;;;;;23.03;53.77;98529.56;4460158;32;20113;-80
2022/07/15 06:45:10;;;;;;;15.05;7.07;;;;;;;23.11;53.83;98538.44;4487257;32;20164;-80
2022/07/15 06:47:40;;;;;;;10.13;4.03;;;;;;;22.33;56.06;98555.03;4487265;32;20451;-80
2022/07/15 06:50:06;;;;;;;8.73;3.33;;;;;;;22.55;55.51;98573.16;4473432;32;20111;-79
2022/07/15 06:52:33;;;;;;;10.38;3.60;;;;;;;22.32;56.24;98574.78;4472868;32;20100;-79
2022/07/15 06:54:58;;;;;;;12.00;4.30;;;;;;;22.34;56.19;98554.00;4460082;32;20259;-79
2022/07/15 06:57:24;;;;;;;8.43;2.87;;;;;;;22.45;55.92;98556.38;4487192;32;20266;-80
2022/07/15 06:59:51;;;;;;;5.60;2.62;;;;;;;22.58;55.59;98570.16;4472969;32;20093;-80
2022/07/15 07:02:19;;;;;;;7.87;2.80;;;;;;;22.83;55.06;98583.59;4487517;32;20143;-80
2022/07/15 07:04:47;;;;;;;17.10;3.50;;;;;;;22.68;55.39;98617.50;4473160;32;20179;-80
2022/07/15 07:07:13;;;;;;;7.47;3.00;;;;;;;22.86;55.12;98628.91;4472833;32;20180;-80
2022/07/15 07:09:39;;;;;;;9.73;2.83;;;;;;;22.89;54.98;98631.28;4473062;32;20413;-80
2022/07/15 07:12:06;;;;;;;9.70;2.90;;;;;;;22.70;55.32;98636.97;4459908;32;20119;-80
2022/07/15 07:14:32;;;;;;;8.38;3.50;;;;;;;22.72;55.24;98645.69;4473049;32;20489;-80
2022/07/15 07:16:57;;;;;;;7.45;2.60;;;;;;;22.75;55.35;98638.16;4472732;32;20104;-80
2022/07/15 07:19:23;;;;;;;10.05;3.80;;;;;;;22.90;54.73;98646.38;4487156;32;20083;-80
2022/07/15 07:21:48;;;;;;;10.63;3.60;;;;;;;23.00;54.20;98659.66;4472858;32;20111;-80
2022/07/15 07:24:14;;;;;;;11.70;3.37;;;;;;;23.00;54.05;98651.59;4487200;32;20163;-80
2022/07/15 07:26:40;;;;;;;16.77;4.68;;;;;;;22.93;54.47;98664.88;4487103;32;20163;-80
2022/07/15 07:29:05;;;;;;;10.77;2.92;;;;;;;23.03;54.15;98654.00;4487088;32;20345;-80
2022/07/15 07:31:31;;;;;;;9.43;3.35;;;;;;;22.78;54.69;98640.50;4487096;32;20087;-80
2022/07/15 07:33:57;;;;;;;11.57;4.78;;;;;;;22.62;55.31;98640.47;4472721;32;20130;-80
2022/07/15 07:36:23;;;;;;;10.30;2.78;;;;;;;22.13;56.84;98640.25;4472637;32;20108;-80
2022/07/15 07:38:49;;;;;;;7.35;2.70;;;;;;;22.40;56.34;98649.12;4487195;32;20140;-80
2022/07/15 07:41:16;;;;;;;10.13;3.15;;;;;;;22.30;56.25;98654.63;4472986;32;20081;-80
2022/07/15 07:43:42;;;;;;;6.70;2.75;;;;;;;22.34;56.29;98659.50;4473028;32;20165;-80
2022/07/15 07:46:07;;;;;;;8.43;2.55;;;;;;;22.71;55.44;98657.44;4495526;31;20378;-79
2022/07/15 07:48:32;;;;;;;8.20;3.05;;;;;;;22.81;54.81;98657.28;4487917;31;20092;-80
2022/07/15 07:50:58;;;;;;;7.82;3.20;;;;;;;22.77;54.94;98648.69;4487083;32;20080;-79
2022/07/15 07:53:26;;;;;;;7.40;3.20;;;;;;;22.55;55.72;98650.19;4472676;32;20132;-79
2022/07/15 07:55:51;;;;;;;8.95;3.10;;;;;;;22.55;55.85;98667.13;4459541;32;20395;-80
2022/07/15 07:58:17;;;;;;;7.43;3.30;;;;;;;22.74;55.36;98665.16;4459340;32;20096;-79
2022/07/15 08:00:44;;;;;;;10.10;2.85;;;;;;;22.91;54.88;98657.97;4486789;32;20088;-79
2022/07/15 08:03:10;;;;;;;8.10;3.40;;;;;;;22.96;54.51;98648.41;4486784;32;20165;-79
2022/07/15 08:05:36;;;;;;;7.35;3.00;;;;;;;22.86;54.90;98660.31;4486687;32;20112;-80
2022/07/15 08:08:17;;;;;;;7.30;3.10;;;;;;;23.07;54.42;98649.97;4472389;32;20084;-80
2022/07/15 08:10:45;;;;;;;8.18;3.22;;;;;;;23.11;54.12;98645.09;4472810;32;20089;-80
2022/07/15 08:13:12;;;;;;;8.52;3.20;;;;;;;23.02;54.47;98654.94;4489977;31;20526;-79
2022/07/15 08:15:39;;;;;;;9.23;3.62;;;;;;;23.13;54.20;98649.28;4474865;31;20126;-79
2022/07/15 08:18:05;;;;;;;9.27;3.83;;;;;;;22.68;55.94;98666.66;4488375;31;20125;-78
2022/07/15 08:20:31;;;;;;;9.55;3.65;;;;;;;22.94;55.81;98673.75;4501658;31;20091;-79
2022/07/15 08:23:01;;;;;;;9.13;3.63;;;;;;;22.92;56.25;98673.91;4502664;31;20478;-79
2022/07/15 08:25:32;;;;;;;9.20;3.80;;;;;;;23.01;56.43;98679.31;4502556;31;20117;-79
2022/07/15 08:28:00;;;;;;;9.88;3.85;;;;;;;23.13;56.29;98668.09;4502798;31;20080;-79
2022/07/15 08:30:27;;;;;;;10.52;3.60;;;;;;;23.33;55.80;98671.31;4502619;31;20394;-78
2022/07/15 08:32:54;;;;;;;10.65;3.80;;;;;;;23.09;56.29;98666.75;4488004;31;20100;-79
2022/07/15 08:35:20;;;;;;;8.70;3.42;;;;;;;23.25;56.33;98673.16;4488240;31;20130;-79
2022/07/15 08:37:45;;;;;;;10.75;4.03;;;;;;;23.40;55.07;98679.53;4502478;31;20084;-80
2022/07/15 08:40:11;;;;;;;9.68;3.92;;;;;;;23.40;55.13;98684.91;4502209;31;20101;-81
2022/07/15 08:42:39;;;;;;;9.50;3.70;;;;;;;23.69;54.67;98694.28;4487902;31;20179;-82
2022/07/15 08:45:05;;;;;;;;;;;;;;;23.65;54.49;98672.28;4499281;31;20139;-81
2022/07/15 08:47:31;;;;;;;10.35;3.85;;;;;;;23.80;54.22;98679.66;4486312;32;19990;-82
2022/07/15 08:49:57;;;;;;;11.30;3.83;;;;;;;23.69;54.93;98681.69;4486202;32;20085;-81
2022/07/15 08:52:24;;;;;;;10.38;4.07;;;;;;;23.94;54.42;98679.81;4486127;32;20360;-81
2022/07/15 08:54:50;;;;;;;7.82;3.65;;;;;;;23.91;53.98;98682.00;4471982;32;20123;-81
2022/07/15 08:57:15;;;;;;;12.02;4.43;;;;;;;24.10;53.02;98703.16;4471881;32;20088;-81
2022/07/15 08:59:42;;;;;;;10.60;4.15;;;;;;;24.21;52.88;98709.19;4471784;32;20455;-82
2022/07/15 09:02:08;;;;;;;13.48;5.40;;;;;;;24.39;52.48;98709.78;4485870;32;20092;-82
2022/07/15 09:04:33;;;;;;;12.70;4.47;;;;;;;24.41;52.28;98705.06;4471678;32;20119;-82
2022/07/15 09:07:04;;;;;;;11.93;4.40;;;;;;;24.38;51.50;98705.44;4471626;32;20109;-79
2022/07/15 09:09:34;;;;;;;12.75;3.90;;;;;;;24.59;50.35;98682.47;4486007;32;20107;-79
2022/07/15 09:12:06;;;;;;;10.13;3.83;;;;;;;24.37;51.00;98689.44;4471605;32;20224;-80
2022/07/15 09:14:34;;;;;;;9.23;3.72;;;;;;;24.56;50.76;98707.06;4471765;32;20135;-80
2022/07/15 09:17:11;;;;;;;11.27;3.67;;;;;;;24.27;51.25;98728.16;4485793;32;20089;-79
2022/07/15 09:19:56;;;;;;;9.00;3.30;;;;;;;24.62;50.20;98728.75;4485922;32;20490;-79
2022/07/15 09:22:21;;;;;;;10.18;3.80;;;;;;;24.94;48.69;98721.53;4485721;32;20173;-79
2022/07/15 09:25:09;;;;;;;8.95;3.30;;;;;;;24.79;48.77;98697.19;4471630;32;20133;-78
2022/07/15 09:27:40;;;;;;;11.70;3.60;;;;;;;24.78;48.91;98689.25;4471339;32;20096;-79
2022/07/15 09:36:06;;;;;;;7.15;2.92;;;;;;;24.57;47.63;98697.97;4476093;32;20126;-80
2022/07/15 09:38:45;;;;;;;7.80;3.20;;;;;;;24.60;47.27;98703.00;4487916;32;20123;-80
2022/07/15 09:41:25;;;;;;;8.48;3.03;;;;;;;24.64;47.20;98710.53;4488070;32;20114;-80
2022/07/15 09:43:57;;;;;;;11.85;3.62;;;;;;;24.41;46.88;98723.91;4487955;32;20178;-80
2022/07/15 09:46:26;;;;;;;9.60;3.53;;;;;;;24.64;45.72;98720.50;4487849;32;20099;-81
2022/07/15 09:48:53;;;;;;;8.65;3.30;;;;;;;24.89;45.03;98711.25;4473717;32;20117;-80
2022/07/15 09:51:19;;;;;;;10.90;3.28;;;;;;;24.84;43.90;98713.66;4487732;32;20100;-80
2022/07/15 09:53:46;;;;;;;8.15;2.90;;;;;;;25.22;43.02;98721.00;4487812;32;20119;-79
2022/07/15 09:56:15;;;;;;;7.40;2.78;;;;;;;25.25;42.85;98720.69;4487900;32;20105;-80
2022/07/15 09:58:42;;;;;;;8.32;3.12;;;;;;;25.78;42.10;98724.25;4473584;32;20087;-80
2022/07/15 10:01:09;;;;;;;8.52;3.35;;;;;;;26.08;41.39;98737.84;4473409;32;20446;-80
2022/07/15 10:03:35;;;;;;;7.93;2.70;;;;;;;26.37;41.14;98737.03;4487796;32;20152;-79
2022/07/15 10:06:02;;;;;;;11.45;3.30;;;;;;;26.45;40.17;98723.41;4473336;32;20486;-79
2022/07/15 10:08:30;;;;;;;10.97;3.03;;;;;;;26.34;39.43;98698.75;4473617;32;20353;-80
2022/07/15 10:10:56;;;;;;;8.35;2.90;;;;;;;26.10;38.02;98698.00;4487590;32;20084;-80
2022/07/15 10:13:48;;;;;;;7.93;2.97;;;;;;;25.80;38.98;98672.81;4473306;32;20522;-80
2022/07/15 10:16:20;;;;;;;9.20;2.30;;;;;;;25.84;39.02;98641.75;4473190;32;20380;-78
2022/07/15 10:18:55;;;;;;;8.23;2.45;;;;;;;25.74;37.69;98619.59;4473448;32;20096;-79
2022/07/15 10:21:31;;;;;;;8.70;2.22;;;;;;;25.47;36.26;98659.66;4473319;32;20141;-79
2022/07/15 10:24:11;;;;;;;10.10;2.62;;;;;;;25.42;35.14;98683.63;4473467;32;20138;-79
2022/07/15 10:26:55;;;;;;;10.32;2.60;;;;;;;25.60;34.44;98677.91;4487649;32;20144;-79
2022/07/15 10:29:21;;;;;;;6.03;2.10;;;;;;;25.60;33.88;98676.03;4487450;32;20498;-79
2022/07/15 10:31:55;;;;;;;9.23;2.30;;;;;;;25.87;33.49;98669.19;4473271;32;20119;-74
2022/07/15 10:34:23;;;;;;;8.68;2.10;;;;;;;25.56;33.99;98665.81;4487511;32;20152;-74
2022/07/15 10:36:49;;;;;;;8.40;2.17;;;;;;;25.86;33.61;98658.59;4473408;32;20104;-75
2022/07/15 10:39:19;;;;;;;6.57;2.20;;;;;;;26.20;33.52;98651.84;4487611;32;20140;-75
2022/07/15 10:41:58;;;;;;;6.85;2.22;;;;;;;26.52;32.59;98655.97;4487340;32;20427;-75
2022/07/15 10:44:26;;;;;;;8.57;2.08;;;;;;;26.63;31.52;98649.25;4472843;32;20101;-75
2022/07/15 10:47:14;;;;;;;6.62;2.15;;;;;;;26.61;31.06;98656.72;4473576;32;20443;-75
2022/07/15 10:49:41;;;;;;;6.05;2.28;;;;;;;26.56;30.45;98653.72;4487433;32;20148;-75
2022/07/15 10:52:20;;;;;;;5.62;1.98;;;;;;;26.90;30.51;98657.66;4473031;32;20168;-75
2022/07/15 10:54:49;;;;;;;5.68;1.98;;;;;;;27.04;30.25;98654.91;4487332;32;20112;-75
2022/07/15 10:57:18;;;;;;;6.57;2.08;;;;;;;27.04;29.17;98659.47;4487414;32;20120;-74
2022/07/15 10:59:49;;;;;;;6.62;1.92;;;;;;;26.83;28.55;98660.28;4473402;32;20111;-75
2022/07/15 11:02:16;;;;;;;8.30;2.20;;;;;;;26.85;28.49;98656.38;4487346;32;20084;-75
2022/07/15 11:04:42;;;;;;;;;;;;;;;27.31;27.78;98663.28;4473620;32;20484;-75
2022/07/15 11:07:09;;;;;;;8.13;2.00;;;;;;;27.56;27.18;98663.69;4487576;32;19989;-75
2022/07/15 11:09:51;;;;;;;7.28;2.00;;;;;;;26.56;27.82;98656.41;4487323;32;20107;-74
2022/07/15 11:12:30;;;;;;;6.75;2.00;;;;;;;26.96;27.45;98665.00;4487159;32;20091;-74
2022/07/15 11:15:23;;;;;;;10.00;2.00;;;;;;;27.21;27.31;98657.34;4487209;32;20104;-75
2022/07/15 11:17:50;;;;;;;7.35;2.10;;;;;;;26.87;27.25;98661.59;4472989;32;20505;-75
2022/07/15 11:20:17;;;;;;;;;;;;;;;27.13;27.28;98652.91;4473213;32;20080;-75
2022/07/15 11:22:54;;;;;;;6.40;1.98;;;;;;;26.99;26.86;98659.22;4473252;32;19975;-75
2022/07/15 11:25:32;;;;;;;9.45;2.10;;;;;;;27.53;26.31;98657.88;4472964;32;20463;-75
2022/07/15 11:28:01;;;;;;;9.98;2.10;;;;;;;27.44;24.84;98655.28;4487319;32;20172;-75
2022/07/15 11:30:32;;;;;;;8.20;2.12;;;;;;;27.38;24.39;98650.66;4487096;32;20087;-75
2022/07/15 11:33:00;;;;;;;8.57;2.50;;;;;;;27.41;23.12;98649.44;4487021;32;20106;-75
2022/07/15 11:35:27;;;;;;;8.20;2.15;;;;;;;27.58;23.32;98655.41;4472893;32;20161;-75
2022/07/15 11:37:58;;;;;;;7.60;2.33;;;;;;;27.49;22.36;98667.37;4472858;32;20126;-75
2022/07/15 11:46:01;;;;;;;7.78;2.40;;;;;;;27.37;22.69;98661.66;4475478;32;20199;-75
2022/07/15 11:48:26;;;;;;;8.60;2.05;;;;;;;27.28;22.74;98658.28;4472759;32;20097;-75
2022/07/15 11:50:57;;;;;;;6.30;2.08;;;;;;;27.48;22.95;98661.16;4472764;32;20130;-75